MSC Gina — 3FLY9 — position and weather

sailwx.info

Track history (hours):
 
Tides and Currents Weather Stations Pressure Air Temp Water Temp Dewpoint Dewpoint Depression Visibility Wind Speed Wind Dir Waves Ship Positions

MSC Gina

Last reported at 2016-Apr-17 16:31 UTC. Time now 2016-May-03 14:26 UTC.
Position N 14°26' W 017°30'.
Warning: this ship's position is 15 days out of date.

Length 259 m; draft 10.5 m.

Type: Ship (hazmat cat A). MMSI: 357542000.

Date/timePositionNaut miles runAvg speedWind from/ knotsBaromVisibWave heightAir tempDewpointWater temp
2016-Apr-17 16:31N 14°26' W 017°30'1616.9
2016-Apr-17 15:33N 14°40' W 017°22'4 3.4
2016-Apr-17 14:29N 14°41' W 017°26'0 0.0
2016-Apr-17 13:29N 14°41' W 017°26'0 0.0
2016-Apr-17 12:32N 14°41' W 017°26'0 0.0
2016-Apr-17 11:32N 14°41' W 017°26'0 0.0
2016-Apr-17 10:32N 14°41' W 017°26'0 0.0
2016-Apr-17 09:32N 14°41' W 017°26'0 0.0
2016-Apr-17 08:29N 14°41' W 017°26'0 0.0
2016-Apr-17 07:23N 14°41' W 017°26'0 0.0
2016-Apr-17 06:32N 14°41' W 017°26'0 0.0
2016-Apr-17 05:32N 14°41' W 017°26'0 0.0
2016-Apr-17 04:32N 14°41' W 017°26'0 0.0
2016-Apr-17 03:32N 14°41' W 017°26'0 0.0
2016-Apr-17 02:23N 14°41' W 017°26'0 0.0
2016-Apr-17 01:26N 14°41' W 017°26'0 0.0
2016-Apr-17 00:29N 14°41' W 017°26'0 0.0
2016-Apr-16 23:29N 14°41' W 017°26'0 0.0
2016-Apr-16 22:32N 14°41' W 017°26'0 0.0
2016-Apr-16 21:32N 14°41' W 017°26'0 0.0
2016-Apr-16 20:32N 14°41' W 017°26'0 0.0
2016-Apr-16 19:32N 14°41' W 017°26'2 1.7
2016-Apr-16 18:33N 14°41' W 017°24'5 4.5
2016-Apr-16 17:34N 14°36' W 017°24'29 9.8
2016-Apr-16 14:33N 15°01' W 017°40'76115.5
2016-Apr-14 13:20N 27°32' W 015°26'1418.3
2016-Apr-14 12:33N 27°44' W 015°18'1717.0
2016-Apr-14 11:33N 28°01' W 015°17'10 9.7
2016-Apr-14 10:33N 28°08' W 015°25'0 0.0
2016-Apr-14 09:31N 28°08' W 015°25'0 0.0
2016-Apr-14 08:31N 28°08' W 015°25'0 0.0
2016-Apr-14 07:33N 28°08' W 015°25'0 0.0
2016-Apr-14 06:33N 28°08' W 015°25'0 0.0
2016-Apr-14 05:33N 28°08' W 015°25'0 0.0
2016-Apr-14 04:33N 28°08' W 015°25'0 0.0
2016-Apr-14 03:33N 28°08' W 015°25'0 0.0
2016-Apr-14 02:21N 28°08' W 015°25'0 0.0
2016-Apr-14 01:33N 28°08' W 015°25'0 0.0
2016-Apr-14 00:24N 28°08' W 015°25'0 0.0
2016-Apr-13 23:27N 28°08' W 015°25'0 0.0
2016-Apr-13 22:27N 28°08' W 015°25'0 0.0
2016-Apr-13 21:27N 28°08' W 015°25'0 0.0
2016-Apr-13 20:30N 28°08' W 015°25'0 0.0
2016-Apr-13 19:30N 28°08' W 015°25'0 0.0
2016-Apr-13 18:30N 28°08' W 015°25'0 0.0
2016-Apr-13 17:33N 28°08' W 015°25'3 3.2
2016-Apr-13 16:33N 28°09' W 015°21'7 6.8
2016-Apr-13 15:33N 28°14' W 015°16'1716.6
2016-Apr-13 14:33N 28°25' W 015°02'1716.9
2016-Apr-13 13:33N 28°37' W 014°49'1716.9
2016-Apr-13 12:32N 28°50' W 014°35'2116.9
2016-Apr-13 11:18N 29°04' W 014°18'61117.6
2016-Apr-12 00:33N 35°60' W 005°27'1616.3
2016-Apr-11 23:33N 36°04' W 005°07'19117.3
2016-Apr-11 12:31N 37°01' W 001°20'1717.4
2016-Apr-11 11:33N 37°12' W 001°05'1817.8
2016-Apr-11 10:33N 37°24' W 000°48'1817.9
2016-Apr-11 09:33N 37°36' W 000°31'1817.8
2016-Apr-11 08:33N 37°52' W 000°21'1818.2
2016-Apr-11 07:33N 38°07' W 000°08'1817.9
2016-Apr-11 06:33N 38°22' E 000°05'6215.5
2016-Apr-11 02:33N 39°23' W 000°09'8 8.0
2016-Apr-11 01:34N 39°26' W 000°18'0 0.4
2016-Apr-11 00:30N 39°26' W 000°19'0 0.0
2016-Apr-10 23:28N 39°26' W 000°19'0 0.0
2016-Apr-10 22:19N 39°26' W 000°19'0 0.0
2016-Apr-10 21:30N 39°26' W 000°19'0 0.0
2016-Apr-10 20:31N 39°26' W 000°19'0 0.0
2016-Apr-10 18:31N 39°26' W 000°19'0 0.0
2016-Apr-10 16:31N 39°26' W 000°19'0 0.0
2016-Apr-10 15:30N 39°26' W 000°19'0 0.0
2016-Apr-10 14:30N 39°26' W 000°19'0 0.0
2016-Apr-10 13:33N 39°26' W 000°19'0 0.0
2016-Apr-10 12:12N 39°26' W 000°19'0 0.0
2016-Apr-10 10:19N 39°26' W 000°19'0 0.0
2016-Apr-10 09:30N 39°26' W 000°19'0 0.0
2016-Apr-10 08:33N 39°26' W 000°19'0 0.0
2016-Apr-10 07:31N 39°26' W 000°19'0 0.0
2016-Apr-10 06:30N 39°26' W 000°19'0 0.0
2016-Apr-10 05:33N 39°26' W 000°19'1 0.6
2016-Apr-10 04:31N 39°26' W 000°19'0 0.0
2016-Apr-10 03:28N 39°26' W 000°19'0 0.0
2016-Apr-10 02:28N 39°26' W 000°19'0 0.0
2016-Apr-10 01:31N 39°26' W 000°19'0 0.0
2016-Apr-10 00:31N 39°26' W 000°19'0 0.0
2016-Apr-09 23:31N 39°26' W 000°19'0 0.0
2016-Apr-09 22:31N 39°26' W 000°19'0 0.0
2016-Apr-09 21:31N 39°26' W 000°19'0 0.0
2016-Apr-09 20:22N 39°26' W 000°19'0 0.0
2016-Apr-09 19:25N 39°26' W 000°19'0 0.0
2016-Apr-09 18:31N 39°26' W 000°19'1 1.2
2016-Apr-09 17:33N 39°26' W 000°18'4 3.8
2016-Apr-09 16:33N 39°26' W 000°13'6 6.3
2016-Apr-09 15:33N 39°26' W 000°05'1 1.3
2016-Apr-09 14:33N 39°25' W 000°05'2 0.7
2016-Apr-09 11:27N 39°23' W 000°03'94 3.8
2016-Apr-08 10:27N 40°33' E 001°19'1617.2
2016-Apr-08 09:32N 40°43' E 001°35'2117.6
2016-Apr-08 08:21N 40°57' E 001°56'1215.7
2016-Apr-08 07:33N 41°05' E 002°09'14916.5
2016-Apr-07 22:29N 42°41' E 004°42'  
Track history (hours):
 
Tides and Currents Weather Stations Pressure Air Temp Water Temp Dewpoint Dewpoint Depression Visibility Wind Speed Wind Dir Waves Ship Positions

MSC Gina

Last reported at 2016-Apr-17 16:31 UTC. Time now 2016-May-03 14:26 UTC.
Position N 14°26' W 017°30'.
Warning: this ship's position is 15 days out of date.

Length 259 m; draft 10.5 m.

Type: Ship (hazmat cat A). MMSI: 357542000.

Date/timePositionNaut miles runAvg speedWind from/ knotsBaromVisibWave heightAir tempDewpointWater temp
2016-Apr-17 16:31N 14°26' W 017°30'1616.9
2016-Apr-17 15:33N 14°40' W 017°22'4 3.4
2016-Apr-17 14:29N 14°41' W 017°26'0 0.0
2016-Apr-17 13:29N 14°41' W 017°26'0 0.0
2016-Apr-17 12:32N 14°41' W 017°26'0 0.0
2016-Apr-17 11:32N 14°41' W 017°26'0 0.0
2016-Apr-17 10:32N 14°41' W 017°26'0 0.0
2016-Apr-17 09:32N 14°41' W 017°26'0 0.0
2016-Apr-17 08:29N 14°41' W 017°26'0 0.0
2016-Apr-17 07:23N 14°41' W 017°26'0 0.0
2016-Apr-17 06:32N 14°41' W 017°26'0 0.0
2016-Apr-17 05:32N 14°41' W 017°26'0 0.0
2016-Apr-17 04:32N 14°41' W 017°26'0 0.0
2016-Apr-17 03:32N 14°41' W 017°26'0 0.0
2016-Apr-17 02:23N 14°41' W 017°26'0 0.0
2016-Apr-17 01:26N 14°41' W 017°26'0 0.0
2016-Apr-17 00:29N 14°41' W 017°26'0 0.0
2016-Apr-16 23:29N 14°41' W 017°26'0 0.0
2016-Apr-16 22:32N 14°41' W 017°26'0 0.0
2016-Apr-16 21:32N 14°41' W 017°26'0 0.0
2016-Apr-16 20:32N 14°41' W 017°26'0 0.0
2016-Apr-16 19:32N 14°41' W 017°26'2 1.7
2016-Apr-16 18:33N 14°41' W 017°24'5 4.5
2016-Apr-16 17:34N 14°36' W 017°24'29 9.8
2016-Apr-16 14:33N 15°01' W 017°40'76115.5
2016-Apr-14 13:20N 27°32' W 015°26'1418.3
2016-Apr-14 12:33N 27°44' W 015°18'1717.0
2016-Apr-14 11:33N 28°01' W 015°17'10 9.7
2016-Apr-14 10:33N 28°08' W 015°25'0 0.0
2016-Apr-14 09:31N 28°08' W 015°25'0 0.0
2016-Apr-14 08:31N 28°08' W 015°25'0 0.0
2016-Apr-14 07:33N 28°08' W 015°25'0 0.0
2016-Apr-14 06:33N 28°08' W 015°25'0 0.0
2016-Apr-14 05:33N 28°08' W 015°25'0 0.0
2016-Apr-14 04:33N 28°08' W 015°25'0 0.0
2016-Apr-14 03:33N 28°08' W 015°25'0 0.0
2016-Apr-14 02:21N 28°08' W 015°25'0 0.0
2016-Apr-14 01:33N 28°08' W 015°25'0 0.0
2016-Apr-14 00:24N 28°08' W 015°25'0 0.0
2016-Apr-13 23:27N 28°08' W 015°25'0 0.0
2016-Apr-13 22:27N 28°08' W 015°25'0 0.0
2016-Apr-13 21:27N 28°08' W 015°25'0 0.0
2016-Apr-13 20:30N 28°08' W 015°25'0 0.0
2016-Apr-13 19:30N 28°08' W 015°25'0 0.0
2016-Apr-13 18:30N 28°08' W 015°25'0 0.0
2016-Apr-13 17:33N 28°08' W 015°25'3 3.2
2016-Apr-13 16:33N 28°09' W 015°21'7 6.8
2016-Apr-13 15:33N 28°14' W 015°16'1716.6
2016-Apr-13 14:33N 28°25' W 015°02'1716.9
2016-Apr-13 13:33N 28°37' W 014°49'1716.9
2016-Apr-13 12:32N 28°50' W 014°35'2116.9
2016-Apr-13 11:18N 29°04' W 014°18'61117.6
2016-Apr-12 00:33N 35°60' W 005°27'1616.3
2016-Apr-11 23:33N 36°04' W 005°07'19117.3
2016-Apr-11 12:31N 37°01' W 001°20'1717.4
2016-Apr-11 11:33N 37°12' W 001°05'1817.8
2016-Apr-11 10:33N 37°24' W 000°48'1817.9
2016-Apr-11 09:33N 37°36' W 000°31'1817.8
2016-Apr-11 08:33N 37°52' W 000°21'1818.2
2016-Apr-11 07:33N 38°07' W 000°08'1817.9
2016-Apr-11 06:33N 38°22' E 000°05'6215.5
2016-Apr-11 02:33N 39°23' W 000°09'8 8.0
2016-Apr-11 01:34N 39°26' W 000°18'0 0.4
2016-Apr-11 00:30N 39°26' W 000°19'0 0.0
2016-Apr-10 23:28N 39°26' W 000°19'0 0.0
2016-Apr-10 22:19N 39°26' W 000°19'0 0.0
2016-Apr-10 21:30N 39°26' W 000°19'0 0.0
2016-Apr-10 20:31N 39°26' W 000°19'0 0.0
2016-Apr-10 18:31N 39°26' W 000°19'0 0.0
2016-Apr-10 16:31N 39°26' W 000°19'0 0.0
2016-Apr-10 15:30N 39°26' W 000°19'0 0.0
2016-Apr-10 14:30N 39°26' W 000°19'0 0.0
2016-Apr-10 13:33N 39°26' W 000°19'0 0.0
2016-Apr-10 12:12N 39°26' W 000°19'0 0.0
2016-Apr-10 10:19N 39°26' W 000°19'0 0.0
2016-Apr-10 09:30N 39°26' W 000°19'0 0.0
2016-Apr-10 08:33N 39°26' W 000°19'0 0.0
2016-Apr-10 07:31N 39°26' W 000°19'0 0.0
2016-Apr-10 06:30N 39°26' W 000°19'0 0.0
2016-Apr-10 05:33N 39°26' W 000°19'1 0.6
2016-Apr-10 04:31N 39°26' W 000°19'0 0.0
2016-Apr-10 03:28N 39°26' W 000°19'0 0.0
2016-Apr-10 02:28N 39°26' W 000°19'0 0.0
2016-Apr-10 01:31N 39°26' W 000°19'0 0.0
2016-Apr-10 00:31N 39°26' W 000°19'0 0.0
2016-Apr-09 23:31N 39°26' W 000°19'0 0.0
2016-Apr-09 22:31N 39°26' W 000°19'0 0.0
2016-Apr-09 21:31N 39°26' W 000°19'0 0.0
2016-Apr-09 20:22N 39°26' W 000°19'0 0.0
2016-Apr-09 19:25N 39°26' W 000°19'0 0.0
2016-Apr-09 18:31N 39°26' W 000°19'1 1.2
2016-Apr-09 17:33N 39°26' W 000°18'4 3.8
2016-Apr-09 16:33N 39°26' W 000°13'6 6.3
2016-Apr-09 15:33N 39°26' W 000°05'1 1.3
2016-Apr-09 14:33N 39°25' W 000°05'2 0.7
2016-Apr-09 11:27N 39°23' W 000°03'94 3.8
2016-Apr-08 10:27N 40°33' E 001°19'1617.2
2016-Apr-08 09:32N 40°43' E 001°35'2117.6
2016-Apr-08 08:21N 40°57' E 001°56'1215.7
2016-Apr-08 07:33N 41°05' E 002°09'14916.5
2016-Apr-07 22:29N 42°41' E 004°42'  

Dump ship's entire track history